Time;durP1;ratioP1;P1;durP2;ratioP2;P2;SDS_P1;SDS_P2;PMS_P1;PMS_P2;Temp;Humidity;BMP_temperature;BMP_pressure;BME280_temperature;BME280_humidity;BME280_pressure;Samples;Min_cycle;Max_cycle;Signal;HPM_P1;HPM_P2
2022/10/22 00:01:02;;;;;;;31.35;18.13;;;12.50;99.90;;;;;;4948794;29;20071;-60
2022/10/22 00:03:27;;;;;;;25.33;18.13;;;12.70;99.90;;;;;;4946996;29;20376;-60
2022/10/22 00:05:53;;;;;;;26.02;18.17;;;12.80;99.90;;;;;;4948033;28;20039;-60
2022/10/22 00:08:18;;;;;;;29.35;18.98;;;12.70;99.90;;;;;;4948018;29;20047;-60
2022/10/22 00:10:44;;;;;;;29.88;18.83;;;12.50;99.90;;;;;;4948548;29;20070;-59
2022/10/22 00:13:11;;;;;;;22.67;16.98;;;12.50;99.90;;;;;;4947815;29;20089;-59
2022/10/22 00:15:36;;;;;;;24.98;17.35;;;12.60;99.90;;;;;;4948385;29;20139;-59
2022/10/22 00:18:02;;;;;;;22.15;17.13;;;12.60;99.90;;;;;;4947684;29;20122;-59
2022/10/22 00:20:28;;;;;;;25.27;17.33;;;12.60;99.90;;;;;;4948176;29;20444;-60
2022/10/22 00:22:53;;;;;;;25.63;17.00;;;12.60;99.90;;;;;;4947916;29;20095;-59
2022/10/22 00:25:19;;;;;;;25.98;17.00;;;12.40;99.90;;;;;;4947856;29;20670;-60
2022/10/22 00:27:45;;;;;;;21.30;16.73;;;12.50;99.90;;;;;;4948157;29;20638;-59
2022/10/22 00:30:11;;;;;;;25.13;16.27;;;12.50;99.90;;;;;;4947327;29;20102;-59
2022/10/22 00:32:37;;;;;;;20.17;15.45;;;12.40;99.90;;;;;;4948383;29;20046;-60
2022/10/22 00:35:03;;;;;;;20.02;16.10;;;12.40;99.90;;;;;;4946953;29;20495;-59
2022/10/22 00:37:29;;;;;;;25.17;17.23;;;12.40;99.90;;;;;;4947330;29;20042;-59
2022/10/22 00:39:55;;;;;;;25.95;17.30;;;12.50;99.90;;;;;;4947763;29;20046;-60
2022/10/22 00:42:23;;;;;;;24.40;16.50;;;12.30;99.90;;;;;;4947432;29;20138;-60
2022/10/22 00:45:11;;;;;;;23.23;17.25;;;12.30;99.90;;;;;;4947608;29;20043;-60
2022/10/22 00:47:41;;;;;;;21.23;15.73;;;12.30;99.90;;;;;;4947852;29;20054;-60
2022/10/22 00:50:11;;;;;;;20.88;15.50;;;12.30;99.90;;;;;;4929946;29;20047;-59
2022/10/22 00:52:37;;;;;;;19.52;15.68;;;12.40;99.90;;;;;;4947678;29;20039;-59
2022/10/22 00:55:04;;;;;;;19.17;15.07;;;12.50;99.90;;;;;;4947685;29;20434;-59
2022/10/22 00:57:31;;;;;;;20.23;14.98;;;12.40;99.90;;;;;;4947448;28;20070;-59
2022/10/22 00:59:57;;;;;;;23.48;15.88;;;12.30;99.90;;;;;;4947280;29;20126;-59
2022/10/22 01:02:23;;;;;;;24.13;14.82;;;12.20;99.90;;;;;;4946053;29;20114;-60
2022/10/22 01:04:49;;;;;;;20.20;15.25;;;12.40;99.90;;;;;;4946207;28;20053;-60
2022/10/22 01:07:17;;;;;;;19.30;14.70;;;12.20;99.90;;;;;;4947241;29;20118;-60
2022/10/22 01:09:50;;;;;;;19.33;15.10;;;12.20;99.90;;;;;;4947117;29;20086;-59
2022/10/22 01:12:43;;;;;;;18.45;15.43;;;12.20;99.90;;;;;;4947546;29;20133;-59
2022/10/22 01:15:39;;;;;;;20.10;14.73;;;12.20;99.90;;;;;;4947643;29;20054;-59
2022/10/22 01:18:19;;;;;;;;;;;12.20;99.90;;;;;;4946278;29;20047;-59
2022/10/22 01:20:44;;;;;;;24.08;14.20;;;12.30;99.90;;;;;;4947352;29;19923;-60
2022/10/22 01:23:37;;;;;;;19.45;14.63;;;12.20;99.90;;;;;;4947101;29;20062;-60
2022/10/22 01:26:15;;;;;;;20.77;15.02;;;12.20;99.90;;;;;;4946622;29;20043;-60
2022/10/22 01:29:06;;;;;;;19.13;14.40;;;12.30;99.90;;;;;;4945901;29;20051;-60
2022/10/22 01:31:37;;;;;;;21.30;14.13;;;12.10;99.90;;;;;;4946460;29;20062;-61
2022/10/22 01:34:05;;;;;;;19.77;13.80;;;12.20;99.90;;;;;;4945480;29;20039;-60
2022/10/22 01:36:33;;;;;;;18.08;13.77;;;12.30;99.90;;;;;;4929585;29;20126;-60
2022/10/22 01:39:00;;;;;;;19.05;13.07;;;12.30;99.90;;;;;;4946828;29;20047;-59
2022/10/22 01:41:28;;;;;;;22.60;14.63;;;12.10;99.90;;;;;;4946391;29;20070;-60
2022/10/22 01:43:54;;;;;;;18.30;14.52;;;12.00;99.90;;;;;;4946238;29;20039;-61
2022/10/22 01:46:21;;;;;;;22.15;13.57;;;12.30;99.90;;;;;;4946837;29;20545;-60
2022/10/22 01:48:56;;;;;;;18.88;13.73;;;12.10;99.90;;;;;;4946080;29;20046;-60
2022/10/22 01:51:40;;;;;;;;;;;12.10;99.90;;;;;;4946599;29;20047;-60
2022/10/22 01:54:38;;;;;;;18.75;14.35;;;12.00;99.90;;;;;;4946351;29;19929;-60
2022/10/22 01:57:23;;;;;;;16.88;14.15;;;12.00;99.90;;;;;;4946539;29;20055;-60
2022/10/22 01:59:56;;;;;;;19.75;14.18;;;12.20;99.90;;;;;;4946794;29;20043;-60
2022/10/22 02:02:40;;;;;;;21.45;14.60;;;12.10;99.90;;;;;;4946428;29;20126;-60
2022/10/22 02:05:16;;;;;;;22.88;13.93;;;12.10;99.90;;;;;;4946027;29;20142;-58
2022/10/22 02:08:05;;;;;;;19.42;14.45;;;12.00;99.90;;;;;;4937942;29;20078;-60
2022/10/22 02:10:31;;;;;;;23.17;14.65;;;12.00;99.90;;;;;;4946169;29;20047;-60
2022/10/22 02:12:58;;;;;;;18.08;14.23;;;11.80;99.90;;;;;;4946438;29;20040;-60
2022/10/22 02:15:28;;;;;;;19.77;15.02;;;11.90;99.90;;;;;;5016840;23;20425;-61
2022/10/22 02:17:57;;;;;;;19.10;14.75;;;11.80;99.90;;;;;;4932154;29;20139;-61
2022/10/22 02:20:32;;;;;;;21.13;14.85;;;12.00;99.90;;;;;;4946426;28;20501;-60
2022/10/22 02:22:59;;;;;;;22.83;14.27;;;12.00;99.90;;;;;;4965415;28;20043;-60
2022/10/22 02:25:30;;;;;;;19.92;14.73;;;12.00;99.90;;;;;;4965807;28;20574;-61
2022/10/22 02:28:16;;;;;;;18.95;15.05;;;12.00;99.90;;;;;;4965650;28;20288;-60
2022/10/22 02:30:46;;;;;;;20.88;14.77;;;12.10;99.90;;;;;;4951752;28;20051;-60
2022/10/22 02:33:17;;;;;;;18.55;14.52;;;11.90;99.90;;;;;;4964506;28;20050;-60
2022/10/22 02:35:44;;;;;;;22.92;15.38;;;11.80;99.90;;;;;;4964530;28;20047;-61
2022/10/22 02:38:12;;;;;;;21.40;14.82;;;11.80;99.90;;;;;;4965273;28;20121;-60
2022/10/22 02:40:38;;;;;;;21.52;15.77;;;11.80;99.90;;;;;;4965041;28;20481;-60
2022/10/22 02:43:05;;;;;;;24.05;15.73;;;12.00;99.90;;;;;;4947464;28;20047;-60
2022/10/22 02:45:31;;;;;;;22.08;15.10;;;11.80;99.90;;;;;;4964825;28;20089;-60
2022/10/22 02:47:57;;;;;;;18.17;13.25;;;12.00;99.90;;;;;;4964544;28;20480;-60
2022/10/22 02:50:22;;;;;;;20.65;13.98;;;11.90;99.90;;;;;;4965272;28;20134;-60
2022/10/22 02:52:48;;;;;;;18.67;13.57;;;12.10;99.90;;;;;;4946788;28;20078;-60
2022/10/22 02:55:14;;;;;;;22.50;13.50;;;12.00;99.90;;;;;;4965429;28;20089;-60
2022/10/22 02:57:40;;;;;;;18.08;13.70;;;12.00;99.90;;;;;;4947636;28;20122;-61
2022/10/22 03:00:07;;;;;;;21.65;13.90;;;12.10;99.90;;;;;;4964695;28;20482;-61
2022/10/22 03:02:33;;;;;;;18.98;13.82;;;11.90;99.90;;;;;;4963429;28;20042;-60
2022/10/22 03:04:59;;;;;;;21.10;13.73;;;12.20;99.90;;;;;;4961016;28;20042;-61
2022/10/22 03:07:24;;;;;;;22.65;14.07;;;12.00;99.90;;;;;;4954380;28;20051;-60
2022/10/22 03:09:50;;;;;;;20.58;13.50;;;12.00;99.90;;;;;;4945170;29;20043;-59
2022/10/22 03:12:16;;;;;;;20.90;14.05;;;12.00;99.90;;;;;;4945572;29;20452;-58
2022/10/22 03:14:41;;;;;;;21.50;13.23;;;12.10;99.90;;;;;;4945428;28;20521;-60
2022/10/22 03:17:08;;;;;;;17.77;12.75;;;12.10;99.90;;;;;;4945332;29;20043;-60
2022/10/22 03:19:34;;;;;;;18.65;13.65;;;12.10;99.90;;;;;;4943696;28;20051;-60
2022/10/22 03:22:08;;;;;;;18.08;13.20;;;12.10;99.90;;;;;;4948546;28;20522;-61
2022/10/22 03:24:41;;;;;;;24.25;13.82;;;12.10;99.90;;;;;;4949526;29;20122;-60
2022/10/22 03:27:07;;;;;;;21.58;13.45;;;11.90;99.90;;;;;;4949254;29;20047;-60
2022/10/22 03:29:36;;;;;;;20.25;13.50;;;11.90;99.90;;;;;;4948267;28;20485;-60
2022/10/22 03:32:02;;;;;;;17.45;13.30;;;11.80;99.90;;;;;;4949093;29;20050;-61
2022/10/22 03:34:27;;;;;;;19.90;13.25;;;11.80;99.90;;;;;;4948100;29;20386;-60
2022/10/22 03:36:55;;;;;;;20.83;13.15;;;11.90;99.90;;;;;;4949799;29;20067;-59
2022/10/22 03:39:22;;;;;;;20.33;13.38;;;11.80;99.90;;;;;;4948755;29;20421;-60
2022/10/22 03:41:50;;;;;;;21.13;13.00;;;11.70;99.90;;;;;;4948523;29;20054;-59
2022/10/22 03:44:16;;;;;;;20.25;14.60;;;11.90;99.90;;;;;;4947541;29;20062;-60
2022/10/22 03:46:42;;;;;;;20.98;14.13;;;11.90;99.90;;;;;;4931494;29;20043;-60
2022/10/22 03:49:08;;;;;;;20.20;14.23;;;11.70;99.90;;;;;;4947542;29;20093;-60
2022/10/22 03:51:34;;;;;;;21.80;14.77;;;11.70;99.90;;;;;;4930661;29;20074;-61
2022/10/22 03:54:00;;;;;;;21.63;14.10;;;11.80;99.90;;;;;;4948867;29;20049;-60
2022/10/22 03:56:26;;;;;;;19.38;13.63;;;11.60;99.90;;;;;;4949010;29;20043;-60
2022/10/22 03:58:55;;;;;;;20.55;14.63;;;11.70;99.90;;;;;;4948240;29;20057;-60
2022/10/22 04:01:21;;;;;;;19.92;15.40;;;11.70;99.90;;;;;;4948860;28;20043;-60
2022/10/22 04:03:47;;;;;;;20.42;14.65;;;11.70;99.90;;;;;;4947841;28;20039;-60
2022/10/22 04:06:12;;;;;;;15.75;12.93;;;11.80;99.90;;;;;;4957582;28;20042;-61
2022/10/22 04:08:39;;;;;;;21.38;15.32;;;11.70;99.90;;;;;;4947063;28;20080;-60
2022/10/22 04:11:06;;;;;;;17.77;14.65;;;11.80;99.90;;;;;;4930435;29;20043;-60
2022/10/22 04:13:31;;;;;;;19.10;15.55;;;11.90;99.90;;;;;;4948735;29;20058;-61
2022/10/22 04:16:06;;;;;;;18.23;13.73;;;11.90;99.90;;;;;;4947932;29;20051;-60
2022/10/22 04:18:32;;;;;;;22.17;13.85;;;11.80;99.90;;;;;;4947472;29;20102;-61
2022/10/22 04:20:58;;;;;;;18.60;14.98;;;11.80;99.90;;;;;;4948347;29;20422;-60
2022/10/22 04:23:23;;;;;;;18.63;14.07;;;11.60;99.90;;;;;;4961967;28;20047;-59
2022/10/22 04:25:49;;;;;;;17.25;13.93;;;11.70;99.90;;;;;;4947434;29;20031;-60
2022/10/22 04:28:14;;;;;;;18.52;15.23;;;11.80;99.90;;;;;;4962106;28;20103;-61
2022/10/22 04:30:40;;;;;;;20.98;15.25;;;11.60;99.90;;;;;;4947526;29;20043;-61
2022/10/22 04:33:06;;;;;;;20.13;14.90;;;11.80;99.90;;;;;;4946079;28;20445;-61
2022/10/22 04:35:31;;;;;;;20.48;15.18;;;11.50;99.90;;;;;;4947383;29;20043;-61
2022/10/22 04:37:57;;;;;;;20.27;14.98;;;11.50;99.90;;;;;;4947503;29;20059;-60
2022/10/22 04:40:23;;;;;;;21.75;15.60;;;11.70;99.90;;;;;;4946805;28;20039;-60
2022/10/22 04:42:48;;;;;;;19.30;14.68;;;11.70;99.90;;;;;;4947300;29;20430;-60
2022/10/22 04:45:14;;;;;;;22.00;16.08;;;11.70;99.90;;;;;;4947153;29;20054;-60
2022/10/22 04:47:40;;;;;;;20.50;14.93;;;11.70;99.90;;;;;;4946195;29;20091;-60
2022/10/22 04:50:06;;;;;;;18.88;15.00;;;11.50;99.90;;;;;;4945889;29;20506;-59
2022/10/22 04:52:32;;;;;;;20.52;14.95;;;11.80;99.90;;;;;;4948315;29;20055;-60
2022/10/22 04:54:57;;;;;;;21.73;15.45;;;11.50;99.90;;;;;;4948299;29;20071;-60
2022/10/22 04:57:23;;;;;;;21.95;15.73;;;11.50;99.90;;;;;;4947138;29;20482;-59
2022/10/22 04:59:48;;;;;;;19.95;15.30;;;11.70;99.90;;;;;;4947577;29;20122;-60
2022/10/22 05:02:14;;;;;;;23.52;15.38;;;11.60;99.90;;;;;;4947386;29;20106;-59
2022/10/22 05:04:42;;;;;;;21.75;15.85;;;11.50;99.90;;;;;;4949533;28;20042;-59
2022/10/22 05:07:07;;;;;;;21.40;15.20;;;11.70;99.90;;;;;;4955304;28;20043;-60
2022/10/22 05:09:33;;;;;;;23.30;15.43;;;11.50;99.90;;;;;;4947740;28;20062;-61
2022/10/22 05:11:59;;;;;;;23.20;15.98;;;11.70;99.90;;;;;;4947448;29;20439;-60
2022/10/22 05:14:25;;;;;;;20.48;15.55;;;11.70;99.90;;;;;;4946884;29;20054;-60
2022/10/22 05:16:51;;;;;;;21.65;16.20;;;11.50;99.90;;;;;;4947698;29;20087;-60
2022/10/22 05:19:20;;;;;;;21.88;15.52;;;11.50;99.90;;;;;;4946852;29;20050;-61
2022/10/22 05:21:45;;;;;;;23.95;15.85;;;11.60;99.90;;;;;;4946658;29;20047;-59
2022/10/22 05:24:12;;;;;;;22.42;15.57;;;11.70;99.90;;;;;;4946477;29;20221;-61
2022/10/22 05:26:38;;;;;;;23.38;15.45;;;11.80;99.90;;;;;;4947075;29;20066;-60
2022/10/22 05:29:03;;;;;;;21.48;16.17;;;11.60;99.90;;;;;;4946912;29;20043;-60
2022/10/22 05:31:29;;;;;;;19.30;15.65;;;11.80;99.90;;;;;;4944967;29;20048;-60
2022/10/22 05:33:54;;;;;;;25.23;16.00;;;11.60;99.90;;;;;;4944965;29;20301;-59
2022/10/22 05:36:21;;;;;;;22.35;16.42;;;11.70;99.90;;;;;;4946424;28;20035;-60
2022/10/22 05:38:48;;;;;;;23.80;17.45;;;11.80;99.90;;;;;;4947035;29;20062;-59
2022/10/22 05:41:19;;;;;;;30.38;17.58;;;11.60;99.90;;;;;;4946269;29;20043;-58
2022/10/22 05:43:45;;;;;;;24.27;17.35;;;11.70;99.90;;;;;;4946214;28;20086;-60
2022/10/22 05:46:19;;;;;;;25.30;16.85;;;11.70;99.90;;;;;;4947046;29;20035;-60
2022/10/22 05:48:54;;;;;;;24.15;17.98;;;11.60;99.90;;;;;;4945923;29;20051;-60
2022/10/22 05:51:20;;;;;;;25.75;18.30;;;11.70;99.90;;;;;;4946650;29;20039;-61
2022/10/22 05:53:51;;;;;;;28.35;18.30;;;11.60;99.90;;;;;;4946637;29;20390;-60
2022/10/22 05:56:17;;;;;;;27.30;17.55;;;11.60;99.90;;;;;;4946447;29;20707;-60
2022/10/22 05:58:44;;;;;;;27.90;17.98;;;11.60;99.90;;;;;;4946542;28;20125;-61
2022/10/22 06:01:21;;;;;;;25.48;18.23;;;11.50;99.90;;;;;;4946236;29;20043;-59
2022/10/22 06:03:47;;;;;;;26.95;18.48;;;11.50;99.90;;;;;;4946494;29;20044;-60
2022/10/22 06:06:25;;;;;;;22.05;17.13;;;11.50;99.90;;;;;;4956538;28;20050;-60
2022/10/22 06:08:52;;;;;;;26.25;17.73;;;11.60;99.90;;;;;;4945645;29;20051;-59
2022/10/22 06:11:20;;;;;;;22.33;17.33;;;11.50;99.90;;;;;;4947225;29;20089;-60
2022/10/22 06:13:46;;;;;;;21.65;17.23;;;11.50;99.90;;;;;;4946203;29;20055;-60
2022/10/22 06:16:13;;;;;;;23.15;18.27;;;11.50;99.90;;;;;;4945540;29;20201;-60
2022/10/22 06:18:39;;;;;;;28.85;18.02;;;11.50;99.90;;;;;;4945536;29;20126;-59
2022/10/22 06:21:10;;;;;;;26.25;17.80;;;11.50;99.90;;;;;;4946847;29;20178;-60
2022/10/22 06:23:37;;;;;;;26.73;18.25;;;11.60;99.90;;;;;;4946835;29;20043;-61
2022/10/22 06:26:04;;;;;;;28.13;17.38;;;11.70;99.90;;;;;;4946300;28;20043;-60
2022/10/22 06:28:30;;;;;;;25.80;18.42;;;11.70;99.90;;;;;;4965105;28;20518;-60
2022/10/22 06:30:58;;;;;;;23.45;18.20;;;11.60;99.90;;;;;;4965349;28;20089;-60
2022/10/22 06:33:24;;;;;;;25.00;17.88;;;11.60;99.90;;;;;;4963600;28;20065;-60
2022/10/22 06:35:50;;;;;;;25.67;18.15;;;11.50;99.90;;;;;;4965072;28;20039;-60
2022/10/22 06:38:15;;;;;;;23.20;18.13;;;11.80;99.90;;;;;;4965313;28;20101;-59
2022/10/22 06:40:43;;;;;;;23.00;16.40;;;11.70;99.90;;;;;;4964926;28;20047;-60
2022/10/22 06:43:12;;;;;;;25.15;17.60;;;11.80;99.90;;;;;;4965326;28;20173;-62
2022/10/22 06:45:39;;;;;;;24.92;17.67;;;11.80;99.90;;;;;;4965735;28;20042;-60
2022/10/22 06:48:05;;;;;;;26.00;17.75;;;11.70;99.90;;;;;;4964141;28;20058;-60
2022/10/22 06:50:32;;;;;;;23.52;17.90;;;11.80;99.90;;;;;;4964589;28;20233;-60
2022/10/22 06:52:58;;;;;;;22.13;17.10;;;11.80;99.90;;;;;;4947746;28;20152;-61
2022/10/22 06:55:24;;;;;;;22.30;16.65;;;11.90;99.90;;;;;;4964762;28;20086;-60
2022/10/22 06:57:49;;;;;;;29.27;16.23;;;12.10;99.90;;;;;;4964659;28;20144;-60
2022/10/22 07:00:15;;;;;;;27.75;18.00;;;12.10;99.90;;;;;;4964971;28;20501;-60
2022/10/22 07:02:40;;;;;;;24.08;17.48;;;12.10;99.90;;;;;;4964349;28;20046;-61
2022/10/22 07:05:07;;;;;;;23.08;16.13;;;12.10;99.90;;;;;;4942629;28;20344;-60
2022/10/22 07:07:32;;;;;;;27.17;17.10;;;12.10;99.90;;;;;;4953449;28;20095;-60
2022/10/22 07:09:58;;;;;;;21.15;16.80;;;12.10;99.90;;;;;;4945690;29;20080;-60
2022/10/22 07:12:24;;;;;;;20.35;15.98;;;12.10;99.90;;;;;;4945242;29;20055;-59
2022/10/22 07:14:50;;;;;;;22.02;16.02;;;12.20;99.90;;;;;;4932898;28;20113;-60
2022/10/22 07:17:15;;;;;;;21.63;15.75;;;12.10;99.90;;;;;;4963394;28;20093;-61
2022/10/22 07:19:41;;;;;;;21.17;14.55;;;12.40;99.90;;;;;;4964461;28;20043;-61
2022/10/22 07:22:07;;;;;;;25.33;15.35;;;12.40;99.90;;;;;;4965076;28;20103;-60
2022/10/22 07:24:32;;;;;;;22.80;14.43;;;12.20;99.90;;;;;;4964438;28;20068;-61
2022/10/22 07:26:58;;;;;;;19.40;15.50;;;12.50;99.90;;;;;;4964390;28;20562;-60
2022/10/22 07:29:24;;;;;;;23.33;16.10;;;12.50;99.90;;;;;;4964808;28;20515;-60
2022/10/22 07:31:49;;;;;;;18.23;14.55;;;12.40;99.90;;;;;;4964133;28;20470;-61
2022/10/22 07:34:15;;;;;;;24.55;15.32;;;12.30;99.90;;;;;;4964154;28;20482;-59
2022/10/22 07:36:40;;;;;;;18.10;15.07;;;12.40;99.90;;;;;;4964736;28;20062;-60
2022/10/22 07:39:06;;;;;;;25.55;16.05;;;12.70;99.90;;;;;;4964573;28;20581;-60
2022/10/22 07:41:32;;;;;;;18.35;14.02;;;12.50;99.90;;;;;;4946372;28;20466;-61
2022/10/22 07:43:58;;;;;;;20.60;14.57;;;12.80;99.90;;;;;;4964408;28;20659;-60
2022/10/22 07:46:24;;;;;;;18.52;13.70;;;12.60;99.90;;;;;;4946526;28;20942;-61
2022/10/22 07:48:50;;;;;;;20.40;13.80;;;12.90;99.90;;;;;;4961350;28;20046;-61
2022/10/22 07:51:16;;;;;;;24.75;14.43;;;12.80;99.90;;;;;;4963539;28;20543;-61
2022/10/22 07:53:42;;;;;;;19.83;14.27;;;12.80;99.90;;;;;;4963982;28;20043;-61
2022/10/22 07:56:08;;;;;;;23.02;14.02;;;12.80;99.90;;;;;;4964914;28;20046;-61
2022/10/22 07:58:34;;;;;;;16.10;12.73;;;13.10;99.90;;;;;;4963563;28;20046;-61
2022/10/22 08:01:04;;;;;;;18.25;13.45;;;12.90;99.90;;;;;;4964271;28;20456;-61
2022/10/22 08:03:30;;;;;;;20.08;13.05;;;13.20;99.90;;;;;;4963509;28;20047;-59
2022/10/22 08:05:55;;;;;;;18.23;12.23;;;12.90;99.90;;;;;;4957680;28;20129;-61
2022/10/22 08:08:21;;;;;;;21.13;12.45;;;13.10;99.90;;;;;;4950504;28;20044;-60
2022/10/22 08:10:49;;;;;;;18.90;13.60;;;13.30;99.90;;;;;;4948354;29;20113;-67
2022/10/22 08:13:15;;;;;;;20.95;13.30;;;13.10;99.90;;;;;;4947671;29;20058;-67
2022/10/22 08:15:42;;;;;;;21.08;12.90;;;13.30;99.90;;;;;;4944734;29;20055;-67
2022/10/22 08:18:08;;;;;;;16.83;12.05;;;13.30;99.90;;;;;;4947307;29;20047;-67
2022/10/22 08:20:34;;;;;;;20.67;12.27;;;13.20;99.90;;;;;;4948272;29;20051;-67
2022/10/22 08:22:59;;;;;;;19.85;12.02;;;13.30;99.90;;;;;;4946023;29;20043;-67
2022/10/22 08:25:25;;;;;;;18.45;12.18;;;13.50;99.90;;;;;;4962444;28;20633;-67
2022/10/22 08:27:51;;;;;;;15.75;11.07;;;13.50;99.90;;;;;;4946549;29;20818;-67
2022/10/22 08:30:17;;;;;;;14.25;10.15;;;13.40;99.90;;;;;;4947702;29;20051;-68
2022/10/22 08:32:43;;;;;;;16.38;11.13;;;13.60;99.90;;;;;;4929940;29;20051;-67
2022/10/22 08:35:09;;;;;;;16.95;11.15;;;13.60;99.90;;;;;;4946603;29;20082;-67
2022/10/22 08:37:35;;;;;;;18.17;11.05;;;13.50;99.90;;;;;;4946799;29;20047;-67
2022/10/22 08:40:00;;;;;;;17.45;11.35;;;13.60;99.90;;;;;;4947167;29;20047;-67
2022/10/22 08:42:26;;;;;;;16.58;11.18;;;13.70;99.90;;;;;;4946429;29;20333;-67
2022/10/22 08:45:07;;;;;;;18.23;10.88;;;13.80;99.90;;;;;;4947137;29;20051;-67
2022/10/22 08:48:00;;;;;;;16.48;11.30;;;13.60;99.90;;;;;;4960575;28;20047;-65
2022/10/22 08:50:35;;;;;;;17.30;10.80;;;13.70;99.90;;;;;;4947700;29;20054;-67
2022/10/22 08:53:21;;;;;;;14.82;9.55;;;13.80;99.90;;;;;;4946707;29;20289;-67
2022/10/22 08:55:51;;;;;;;15.90;10.82;;;13.90;99.90;;;;;;4965062;28;20401;-68
2022/10/22 08:58:23;;;;;;;15.20;9.60;;;13.80;99.90;;;;;;4948376;28;20110;-67
2022/10/22 09:01:23;;;;;;;15.65;10.13;;;14.00;99.90;;;;;;4964711;28;20138;-67
2022/10/22 09:04:13;;;;;;;13.75;9.43;;;14.00;99.90;;;;;;4944284;28;20058;-67
2022/10/22 09:06:43;;;;;;;13.57;8.52;;;14.30;99.90;;;;;;4948311;28;20043;-65
2022/10/22 09:09:16;;;;;;;11.20;7.97;;;14.60;99.90;;;;;;4966674;28;20377;-67
2022/10/22 09:11:55;;;;;;;13.40;7.07;;;14.80;99.90;;;;;;4967389;28;20575;-67
2022/10/22 09:14:23;;;;;;;12.95;6.78;;;15.10;99.90;;;;;;4965943;28;20054;-67
2022/10/22 09:16:52;;;;;;;12.68;7.32;;;15.70;99.90;;;;;;4965856;28;20113;-67
2022/10/22 09:19:47;;;;;;;8.98;5.00;;;15.60;99.90;;;;;;4965025;28;20100;-67
2022/10/22 09:22:55;;;;;;;11.18;5.43;;;15.60;99.90;;;;;;4966664;28;20062;-65
2022/10/22 09:25:24;;;;;;;13.15;5.25;;;16.10;99.90;;;;;;4955206;28;20467;-65
2022/10/22 09:27:57;;;;;;;14.35;5.30;;;16.30;99.90;;;;;;4965940;28;20077;-66
2022/10/22 09:30:29;;;;;;;11.20;4.70;;;16.40;99.90;;;;;;4965446;28;20465;-65
2022/10/22 09:33:05;;;;;;;9.57;4.55;;;16.60;99.90;;;;;;4965113;28;20047;-66
2022/10/22 09:36:02;;;;;;;12.45;4.82;;;16.50;99.90;;;;;;4965637;28;20043;-66
2022/10/22 09:38:39;;;;;;;7.50;3.58;;;16.20;99.90;;;;;;4965633;28;20054;-66
2022/10/22 09:41:07;;;;;;;11.32;5.05;;;16.40;99.90;;;;;;4965770;28;20045;-66
2022/10/22 09:43:33;;;;;;;12.10;5.20;;;16.70;99.90;;;;;;4965740;28;20058;-66
2022/10/22 09:46:02;;;;;;;10.25;4.75;;;17.10;99.90;;;;;;4966480;28;20257;-66
2022/10/22 09:48:33;;;;;;;15.45;5.55;;;16.90;99.90;;;;;;4964829;28;20438;-66
2022/10/22 09:51:29;;;;;;;10.25;3.95;;;17.20;99.90;;;;;;4965039;28;20045;-66
2022/10/22 09:53:57;;;;;;;11.27;3.85;;;16.70;99.90;;;;;;4948474;28;20412;-66
2022/10/22 09:56:26;;;;;;;12.40;4.05;;;16.60;99.90;;;;;;4966042;28;20042;-66
2022/10/22 09:58:55;;;;;;;11.32;4.30;;;16.80;99.90;;;;;;4947760;28;20055;-66
2022/10/22 10:01:28;;;;;;;11.50;4.15;;;17.10;99.90;;;;;;4965413;28;20081;-67
2022/10/22 10:04:01;;;;;;;10.45;4.40;;;17.50;99.90;;;;;;4965224;28;20090;-67
2022/10/22 10:06:32;;;;;;;12.60;4.50;;;17.40;99.90;;;;;;4922410;29;20043;-67
2022/10/22 10:09:01;;;;;;;14.23;4.63;;;17.30;99.90;;;;;;4926899;29;20044;-66
2022/10/22 10:11:35;;;;;;;13.07;4.80;;;16.90;99.90;;;;;;4926130;29;20047;-66
2022/10/22 10:14:23;;;;;;;9.27;4.05;;;16.90;99.90;;;;;;4926239;29;20471;-67
2022/10/22 10:17:08;;;;;;;8.98;4.10;;;16.60;99.90;;;;;;4926344;29;20063;-67
2022/10/22 10:19:59;;;;;;;12.05;4.50;;;16.50;99.90;;;;;;4926579;29;20185;-67
2022/10/22 10:22:37;;;;;;;12.45;5.00;;;16.40;99.90;;;;;;4925944;29;20098;-67
2022/10/22 10:25:27;;;;;;;12.18;4.57;;;16.30;99.90;;;;;;4909453;29;20055;-66
2022/10/22 10:27:58;;;;;;;12.65;5.10;;;16.20;99.90;;;;;;4925916;29;20165;-67
2022/10/22 10:30:24;;;;;;;11.45;4.60;;;16.00;99.90;;;;;;4925945;29;20450;-67
2022/10/22 10:33:01;;;;;;;9.95;4.35;;;16.10;99.90;;;;;;4926207;29;20052;-67
2022/10/22 10:35:53;;;;;;;10.82;4.45;;;16.10;99.90;;;;;;4926378;29;20047;-67
2022/10/22 10:38:19;;;;;;;10.38;3.97;;;16.00;99.90;;;;;;4926349;29;20107;-66
2022/10/22 10:41:03;;;;;;;12.32;3.92;;;16.10;99.90;;;;;;4926233;29;20043;-66
2022/10/22 10:43:36;;;;;;;9.23;4.35;;;16.00;99.90;;;;;;4926159;29;20414;-67
2022/10/22 10:46:23;;;;;;;11.93;4.68;;;15.90;99.90;;;;;;4939999;29;20071;-67
2022/10/22 10:48:55;;;;;;;12.18;4.95;;;15.90;99.90;;;;;;4926290;29;20590;-67
2022/10/22 10:51:39;;;;;;;9.43;4.15;;;15.80;99.90;;;;;;4925928;29;20458;-66
2022/10/22 10:54:25;;;;;;;11.75;4.85;;;15.80;99.90;;;;;;4926097;29;20043;-67
2022/10/22 10:57:01;;;;;;;9.05;4.03;;;15.90;99.90;;;;;;4926705;29;20044;-67
2022/10/22 11:00:00;;;;;;;12.70;5.50;;;15.90;99.90;;;;;;4925541;29;20082;-66
2022/10/22 11:03:08;;;;;;;12.70;5.07;;;15.80;99.90;;;;;;4893031;29;20119;-66
2022/10/22 11:05:53;;;;;;;11.52;5.47;;;15.80;99.90;;;;;;4931015;28;20047;-66
2022/10/22 11:08:27;;;;;;;10.85;4.80;;;15.60;99.90;;;;;;4929611;29;20055;-66
2022/10/22 11:10:58;;;;;;;9.02;4.95;;;15.60;99.90;;;;;;4926638;29;20098;-67
2022/10/22 11:13:30;;;;;;;11.27;5.40;;;15.70;99.90;;;;;;4926845;29;20052;-67
2022/10/22 11:16:20;;;;;;;12.88;5.32;;;15.80;99.90;;;;;;4938848;29;20070;-67
2022/10/22 11:19:15;;;;;;;8.27;5.05;;;15.90;99.90;;;;;;4945123;29;20055;-66
2022/10/22 11:21:53;;;;;;;12.17;5.13;;;16.00;99.90;;;;;;4945581;29;20094;-67
2022/10/22 11:24:47;;;;;;;10.77;4.18;;;15.80;99.90;;;;;;4943949;29;20079;-66
2022/10/22 11:27:25;;;;;;;12.25;5.28;;;15.80;99.90;;;;;;4944832;29;20650;-66
2022/10/22 11:29:57;;;;;;;11.93;5.32;;;15.80;99.90;;;;;;4928900;29;20046;-66
2022/10/22 11:32:25;;;;;;;14.80;5.80;;;15.60;99.90;;;;;;4945008;29;20062;-66
2022/10/22 11:34:55;;;;;;;7.55;3.83;;;15.70;99.90;;;;;;4944807;29;20063;-60
2022/10/22 11:37:25;;;;;;;7.43;3.97;;;15.70;99.90;;;;;;4945560;29;20352;-60
2022/10/22 11:39:54;;;;;;;11.27;5.10;;;15.90;99.90;;;;;;4945422;29;20043;-61
2022/10/22 11:42:39;;;;;;;10.65;5.32;;;15.80;99.90;;;;;;4946693;28;20043;-61
2022/10/22 11:45:27;;;;;;;15.30;5.22;;;15.80;99.90;;;;;;4948908;29;20482;-61
2022/10/22 11:48:00;;;;;;;10.07;5.07;;;15.80;99.90;;;;;;4948915;29;20059;-61
2022/10/22 11:50:42;;;;;;;11.18;5.35;;;15.90;99.90;;;;;;4948695;29;20039;-61
2022/10/22 11:53:11;;;;;;;11.48;5.80;;;15.90;99.90;;;;;;4946882;29;20058;-61
2022/10/22 11:55:47;;;;;;;12.10;5.55;;;15.70;99.90;;;;;;4963092;28;20139;-61
2022/10/22 11:58:27;;;;;;;9.82;5.88;;;15.80;99.90;;;;;;4948120;29;20051;-62
2022/10/22 12:00:55;;;;;;;13.75;6.85;;;15.70;99.90;;;;;;4948338;29;20050;-61
2022/10/22 12:03:42;;;;;;;11.35;6.80;;;15.70;99.90;;;;;;4949398;29;20394;-61
2022/10/22 12:06:11;;;;;;;15.90;7.25;;;15.40;99.90;;;;;;4947062;29;20063;-61
2022/10/22 12:08:53;;;;;;;14.32;8.00;;;15.60;99.90;;;;;;4950664;28;20094;-61
2022/10/22 12:11:23;;;;;;;14.13;7.07;;;15.40;99.90;;;;;;4967996;28;20047;-62
2022/10/22 12:13:49;;;;;;;16.13;7.88;;;15.50;99.90;;;;;;4968192;28;20453;-62
2022/10/22 12:16:15;;;;;;;13.63;6.50;;;15.60;99.90;;;;;;4950179;28;20069;-62
2022/10/22 12:18:43;;;;;;;11.75;6.57;;;15.50;99.90;;;;;;4948222;29;20078;-62
2022/10/22 12:21:12;;;;;;;12.85;6.30;;;15.80;99.90;;;;;;4948930;29;20069;-61
2022/10/22 12:23:38;;;;;;;10.85;5.28;;;15.80;99.90;;;;;;4949002;29;20541;-61
2022/10/22 12:26:04;;;;;;;10.40;6.07;;;15.80;99.90;;;;;;4947845;29;20123;-61
2022/10/22 12:28:39;;;;;;;8.15;5.10;;;15.90;99.90;;;;;;4948476;29;20094;-61
2022/10/22 12:31:05;;;;;;;10.07;5.75;;;16.00;99.90;;;;;;4947405;29;20166;-60
2022/10/22 12:33:31;;;;;;;11.18;5.68;;;16.00;99.90;;;;;;4947954;29;20047;-62
2022/10/22 12:35:59;;;;;;;9.05;5.18;;;16.00;99.90;;;;;;4949053;29;20046;-63
2022/10/22 12:38:25;;;;;;;13.93;5.65;;;16.00;99.90;;;;;;4948295;29;20126;-58
2022/10/22 12:40:54;;;;;;;11.63;5.97;;;16.00;99.90;;;;;;4947668;29;20130;-66
2022/10/22 12:43:29;;;;;;;12.45;5.75;;;15.90;99.90;;;;;;4948036;29;20450;-66
2022/10/22 12:45:56;;;;;;;;;;;15.80;99.90;;;;;;4948136;29;20043;-66
2022/10/22 12:48:39;;;;;;;13.70;6.07;;;15.80;99.90;;;;;;4947218;29;19938;-66